createdAt,value
2022-10-14T00:01:56.331Z,11.60
2022-10-14T00:07:00.172Z,12.00
2022-10-14T00:12:04.249Z,12.40
2022-10-14T00:17:09.508Z,12.50
2022-10-14T00:22:14.003Z,12.38
2022-10-14T00:27:18.125Z,13.43
2022-10-14T00:32:24.191Z,13.90
2022-10-14T00:37:29.946Z,13.70
2022-10-14T00:42:34.070Z,14.25
2022-10-14T00:47:39.634Z,14.23
2022-10-14T00:52:47.324Z,15.88
2022-10-14T00:57:51.177Z,14.85
2022-10-14T01:02:57.387Z,15.40
2022-10-14T01:08:07.451Z,15.30
2022-10-14T01:13:20.409Z,16.17
2022-10-14T01:18:39.156Z,16.70
2022-10-14T01:24:28.345Z,17.48
2022-10-14T01:30:01.685Z,16.95
2022-10-14T01:35:11.761Z,17.58
2022-10-14T01:40:20.883Z,16.83
2022-10-14T01:45:27.108Z,17.83
2022-10-14T01:55:37.912Z,18.15
2022-10-14T02:00:43.761Z,18.88
2022-10-14T02:05:51.768Z,18.20
2022-10-14T02:11:14.571Z,18.95
2022-10-14T02:16:25.278Z,17.83
2022-10-14T02:21:33.588Z,17.58
2022-10-14T02:26:40.999Z,18.13
2022-10-14T02:31:47.212Z,17.65
2022-10-14T02:41:55.022Z,17.40
2022-10-14T02:47:00.241Z,17.10
2022-10-14T02:52:06.788Z,17.60
2022-10-14T02:57:10.688Z,17.20
2022-10-14T03:02:16.073Z,16.48
2022-10-14T03:07:20.180Z,17.13
2022-10-14T03:12:27.948Z,16.70
2022-10-14T03:17:35.309Z,15.88
2022-10-14T03:22:42.452Z,15.50
2022-10-14T03:27:46.587Z,15.15
2022-10-14T03:32:52.782Z,15.73
2022-10-14T03:38:15.037Z,15.75
2022-10-14T03:43:19.650Z,14.10
2022-10-14T03:48:31.719Z,14.73
2022-10-14T03:53:35.535Z,14.25
2022-10-14T03:58:39.562Z,14.95
2022-10-14T04:03:51.107Z,14.90
2022-10-14T04:08:55.309Z,13.50
2022-10-14T04:14:06.384Z,14.30
2022-10-14T04:19:17.761Z,14.13
2022-10-14T04:24:21.899Z,10.63
2022-10-14T04:29:33.045Z,12.75
2022-10-14T04:34:47.640Z,14.27
2022-10-14T04:39:55.735Z,14.48
2022-10-14T04:44:59.980Z,13.23
2022-10-14T04:50:19.035Z,13.13
2022-10-14T04:55:42.740Z,11.82
2022-10-14T05:00:47.763Z,12.18
2022-10-14T05:06:05.324Z,14.07
2022-10-14T05:11:10.984Z,16.67
2022-10-14T05:16:24.327Z,17.40
2022-10-14T05:21:31.662Z,20.48
2022-10-14T05:26:45.890Z,21.17
2022-10-14T05:31:51.239Z,22.08
2022-10-14T05:37:16.878Z,22.23
2022-10-14T05:42:25.218Z,22.35
2022-10-14T05:47:31.767Z,22.92
2022-10-14T05:52:44.096Z,20.52
2022-10-14T05:57:57.111Z,21.08
2022-10-14T06:03:05.664Z,19.58
2022-10-14T06:08:11.523Z,19.25
2022-10-14T06:13:16.051Z,18.85
2022-10-14T06:18:23.437Z,16.13
2022-10-14T06:23:29.683Z,15.93
2022-10-14T06:28:33.781Z,13.35
2022-10-14T06:33:37.683Z,14.18
2022-10-14T06:38:42.929Z,13.02
2022-10-14T06:43:46.691Z,10.40
2022-10-14T06:48:50.668Z,10.43
2022-10-14T06:53:55.860Z,9.45
2022-10-14T06:58:59.656Z,9.18
2022-10-14T07:04:03.444Z,8.98
2022-10-14T07:09:08.663Z,7.70
2022-10-14T07:14:12.484Z,7.80
2022-10-14T07:19:16.275Z,8.02
2022-10-14T07:24:21.575Z,8.05
2022-10-14T07:29:25.377Z,7.27
2022-10-14T07:34:29.132Z,7.50
2022-10-14T07:39:34.267Z,8.02
2022-10-14T07:44:39.925Z,7.87
2022-10-14T07:49:43.754Z,7.63
2022-10-14T07:54:48.935Z,6.80
2022-10-14T07:59:53.520Z,6.80
2022-10-14T08:05:13.178Z,6.57
2022-10-14T08:10:22.597Z,6.55
2022-10-14T08:15:28.662Z,6.63
2022-10-14T08:25:38.054Z,6.00
2022-10-14T08:30:42.019Z,6.50
2022-10-14T08:35:49.120Z,6.13
2022-10-14T08:41:08.218Z,6.07
2022-10-14T08:46:17.425Z,6.25
2022-10-14T08:51:22.409Z,6.40
2022-10-14T08:56:27.735Z,6.63
2022-10-14T09:01:34.496Z,5.90
2022-10-14T09:06:41.255Z,5.38
2022-10-14T09:11:49.871Z,5.72
2022-10-14T09:16:57.794Z,5.25
2022-10-14T09:22:02.603Z,5.72
2022-10-14T09:27:11.741Z,5.82
2022-10-14T09:32:18.652Z,5.20
2022-10-14T09:37:26.831Z,5.82
2022-10-14T09:42:47.002Z,5.45
2022-10-14T09:47:53.422Z,6.03
2022-10-14T09:53:01.596Z,7.13
2022-10-14T09:58:15.285Z,7.07
2022-10-14T10:03:26.693Z,5.45
2022-10-14T10:08:30.665Z,5.30
2022-10-14T10:13:40.575Z,6.38
2022-10-14T10:18:44.519Z,5.00
2022-10-14T10:23:54.366Z,5.60
2022-10-14T10:29:00.495Z,5.93
2022-10-14T10:34:14.249Z,6.05
2022-10-14T10:39:25.063Z,7.25
2022-10-14T10:44:41.241Z,8.30
2022-10-14T10:50:20.804Z,7.32
2022-10-14T10:55:31.654Z,5.82
2022-10-14T11:00:44.327Z,6.00
2022-10-14T11:05:53.701Z,6.18
2022-10-14T11:11:18.656Z,5.68
2022-10-14T11:16:28.704Z,5.63
2022-10-14T11:21:40.564Z,6.03
2022-10-14T11:27:04.178Z,5.78
2022-10-14T11:32:12.283Z,5.82
2022-10-14T11:37:24.676Z,6.13
2022-10-14T11:42:43.291Z,5.82
2022-10-14T11:47:50.016Z,6.53
2022-10-14T11:52:57.464Z,5.53
2022-10-14T11:58:04.546Z,8.30
2022-10-14T12:03:14.550Z,6.05
2022-10-14T12:08:26.990Z,5.85
2022-10-14T12:13:36.320Z,6.57
2022-10-14T12:18:43.296Z,7.47
2022-10-14T12:23:49.920Z,7.13
2022-10-14T12:28:54.938Z,7.88
2022-10-14T12:34:27.560Z,7.43
2022-10-14T12:39:36.209Z,7.43
2022-10-14T12:44:46.097Z,7.63
2022-10-14T12:49:53.612Z,8.00
2022-10-14T12:54:57.902Z,6.45
2022-10-14T13:00:04.369Z,7.72
2022-10-14T13:05:11.803Z,6.75
2022-10-14T13:10:47.239Z,7.18
2022-10-14T13:15:52.005Z,6.45
2022-10-14T13:20:57.249Z,6.53
2022-10-14T13:26:11.280Z,6.82
2022-10-14T13:31:20.089Z,6.80
2022-10-14T13:36:30.930Z,6.57
2022-10-14T13:41:34.890Z,6.85
2022-10-14T13:46:41.889Z,7.15
2022-10-14T13:51:49.923Z,8.27
2022-10-14T13:57:20.182Z,6.88
2022-10-14T14:02:27.431Z,6.85
2022-10-14T14:08:08.404Z,7.53
2022-10-14T14:13:03.531Z,7.70
2022-10-14T14:18:07.374Z,5.07
2022-10-14T14:23:14.205Z,8.30
2022-10-14T14:28:19.613Z,7.85
2022-10-14T14:33:30.098Z,7.15
2022-10-14T14:38:37.112Z,8.05
2022-10-14T14:43:47.310Z,8.05
2022-10-14T14:48:57.647Z,8.45
2022-10-14T14:54:03.206Z,8.30
2022-10-14T14:59:09.595Z,10.05
2022-10-14T15:04:18.750Z,7.30
2022-10-14T15:09:26.591Z,7.70
2022-10-14T15:14:34.204Z,7.20
2022-10-14T15:19:39.031Z,7.28
2022-10-14T15:25:01.817Z,7.65
2022-10-14T15:30:23.964Z,6.90
2022-10-14T15:35:28.713Z,7.65
2022-10-14T15:40:34.438Z,7.13
2022-10-14T15:45:38.731Z,6.93
2022-10-14T15:50:45.671Z,7.60
2022-10-14T15:55:53.754Z,7.80
2022-10-14T16:00:57.584Z,7.28
2022-10-14T16:11:19.384Z,7.30
2022-10-14T16:16:27.112Z,7.35
2022-10-14T16:21:31.022Z,7.57
2022-10-14T16:26:37.145Z,8.27
2022-10-14T16:31:40.935Z,8.13
2022-10-14T16:36:44.851Z,8.07
2022-10-14T16:41:50.447Z,8.07
2022-10-14T16:47:12.010Z,8.05
2022-10-14T16:52:16.508Z,8.80
2022-10-14T16:57:21.774Z,8.40
2022-10-14T17:02:31.928Z,8.37
2022-10-14T17:07:35.803Z,8.68
2022-10-14T17:12:42.365Z,10.85
2022-10-14T17:17:46.143Z,12.43
2022-10-14T17:22:50.304Z,14.45
2022-10-14T17:27:55.657Z,14.57
2022-10-14T17:32:59.483Z,14.57
2022-10-14T17:38:03.268Z,13.18
2022-10-14T17:43:08.502Z,12.77
2022-10-14T17:48:12.337Z,12.00
2022-10-14T17:53:16.125Z,10.88
2022-10-14T17:58:21.842Z,14.05
2022-10-14T18:03:25.772Z,10.85
2022-10-14T18:08:30.175Z,9.90
2022-10-14T18:13:35.703Z,9.73
2022-10-14T18:18:40.170Z,8.70
2022-10-14T18:23:44.188Z,9.48
2022-10-14T18:28:51.305Z,9.27
2022-10-14T18:33:56.081Z,9.38
2022-10-14T18:39:00.850Z,8.65
2022-10-14T18:44:06.394Z,7.93
2022-10-14T18:49:12.660Z,6.30
2022-10-14T18:59:24.476Z,4.20
2022-10-14T19:04:28.281Z,3.42
2022-10-14T19:09:33.458Z,3.38
2022-10-14T19:14:38.627Z,3.13
2022-10-14T19:19:42.572Z,3.70
2022-10-14T19:24:46.743Z,3.00
2022-10-14T19:29:51.906Z,3.20
2022-10-14T19:34:55.695Z,3.00
2022-10-14T19:39:59.462Z,3.28
2022-10-14T19:45:04.807Z,3.55
2022-10-14T19:50:09.751Z,3.63
2022-10-14T19:55:13.624Z,3.60
2022-10-14T20:00:19.705Z,3.20
2022-10-14T20:05:23.484Z,3.30
2022-10-14T20:10:27.289Z,3.10
2022-10-14T20:15:32.483Z,3.92
2022-10-14T20:20:36.279Z,3.45
2022-10-14T20:25:41.482Z,3.20
2022-10-14T20:30:47.552Z,2.90
2022-10-14T20:36:00.213Z,3.22
2022-10-14T20:41:05.477Z,2.67
2022-10-14T20:46:11.338Z,3.10
2022-10-14T20:51:17.694Z,3.00
2022-10-14T20:56:21.466Z,3.08
2022-10-14T21:01:27.381Z,3.40
2022-10-14T21:06:31.934Z,3.00
2022-10-14T21:11:35.742Z,2.85
2022-10-14T21:16:42.341Z,3.45
2022-10-14T21:21:46.557Z,3.20
2022-10-14T21:26:51.062Z,3.20
2022-10-14T21:31:56.237Z,3.42
2022-10-14T21:37:00.112Z,3.45
2022-10-14T21:42:04.033Z,3.40
2022-10-14T21:47:09.460Z,3.15
2022-10-14T21:52:13.258Z,3.30
2022-10-14T21:57:17.626Z,3.58
2022-10-14T22:02:23.803Z,3.35
2022-10-14T22:12:31.078Z,3.08
2022-10-14T22:17:36.280Z,3.42
2022-10-14T22:22:40.287Z,3.03
2022-10-14T22:27:44.090Z,2.83
2022-10-14T22:32:49.347Z,2.83
2022-10-14T22:37:53.135Z,3.10
2022-10-14T22:42:56.919Z,3.28
2022-10-14T22:48:02.095Z,3.35
2022-10-14T22:53:05.892Z,3.30
2022-10-14T22:58:09.697Z,3.25
2022-10-14T23:03:14.968Z,3.50
2022-10-14T23:08:18.772Z,3.90
2022-10-14T23:13:22.607Z,4.43
2022-10-14T23:18:29.485Z,4.85
2022-10-14T23:23:33.347Z,4.47
2022-10-14T23:28:37.403Z,4.55
2022-10-14T23:33:43.010Z,4.88
2022-10-14T23:38:47.545Z,3.65
2022-10-14T23:43:52.017Z,4.90
2022-10-14T23:49:13.903Z,4.60
2022-10-14T23:54:21.075Z,4.63
2022-10-14T23:59:24.861Z,4.57
